Nashville, TN (37210)

5:37 AM CST on February 14, 2016 (GMT -0600)
12 South | | Change Station
CLOSE
Current Station
Personal Weather Station
Location: Nashville, TN
Elevation: 538 ft
Nearby Weather Stations
Active Advisory: Winter Weather Advisory

Elev 538 ft 36.12 °N, 86.79 °W | Updated 2 minutes ago

Overcast
Overcast
27.7 °F
Feels Like 28 °F
N
0.0
Wind Variable Wind from ENE
Gusts 0.0 mph

Today
High -- | Low -- °F
--% Chance of Precip.
Yesterday
High -- | Low -- °F
Precip. -- in
Pressure 30.38 in
Visibility 10.0 miles
Clouds Mostly Cloudy 6500 ft
Overcast 8000 ft
Windchill 28 °F
Dew Point 2 °F
Humidity 32%
Rainfall 0.00 in
Snow Depth Not available.
6:36 AM 5:26 PM
Waxing Crescent, 41% visible
METAR KBNA 141053Z 08006KT 10SM BKN065 OVC080 M02/M14 A3036 RMK AO2 SLP286 T10221144
Pressure 30.38 in
Visibility 10.0 miles
Clouds Mostly Cloudy 6500 ft
Overcast 8000 ft
Windchill 28 °F
Dew Point 2 °F
Humidity 32%
Rainfall 0.00 in
Snow Depth Not available.
6:36 AM 5:26 PM
Waxing Crescent, 41% visible
METAR KBNA 141053Z 08006KT 10SM BKN065 OVC080 M02/M14 A3036 RMK AO2 SLP286 T10221144

10-Day Weather Forecast

Almanac

Astronomy

Feb. 14, 2016 Rise Set
Actual Time
Civil Twilight
Nautical Twilight
Astronomical Twilight
Moon
Length of Visible Light
Length of Day
Tomorrow will be .
, % of the Moon is Illuminated

Today's Extremes

State Highs State Lows

Community

WunderPhotos

Upload Photos

1,892,766 photos uploaded!

WunderBlog® & News

Nearby

Air Quality

  Air Quality AQ Index Pollutant
Not available.

Snow Depth

Station Depth Elevation

Earthquake Activity

City Distance Mag. Time & Date
Minimum magnitude displayed is 2.5.

Coastal Water Temperatures

Place Temperature

Stations

Nearby Weather Stations

Station Location Temp. Windchill Dew Point Humidity Wind Precip. Elev Updated Type
                   

Watches & Warnings

Winter Weather Advisory
Issued: 3:57 AM CST Feb. 14, 2016 – National Weather Service

... Winter Weather Advisory now in effect from 9 am this morning
to midnight CST tonight...

* timing... 9 am Sunday until 6 am CST Monday.

* Main impact... hazardous travel conditions across the advisory
area due to a wintry mix of snow... sleet and some freezing
rain.

* Accumulations... around 1 inch of snow along Interstate 40... with
2 to 3 inches of snow possible north of I 40... toward the
Kentucky border. Less than one tenth of an inch of ice possible
from freezing rain.

Precautionary/preparedness actions...

A Winter Weather Advisory means that periods of snow... sleet... or
freezing rain will cause travel difficulties. Be prepared for
slippery roads and limited visibilities... and use caution while
driving.